sensor_id;sensor_type;location;lat;lon;timestamp;pressure;altitude;pressure_sealevel;temperature;humidity
56876;BME280;42622;49.972;8.452;2023-03-26T00:01:23;100035.69;;;7.16;100.00
56876;BME280;42622;49.972;8.452;2023-03-26T00:03:52;100043.75;;;7.13;100.00
56876;BME280;42622;49.972;8.452;2023-03-26T00:06:28;100045.84;;;7.08;100.00
56876;BME280;42622;49.972;8.452;2023-03-26T00:08:59;100050.44;;;7.05;100.00
56876;BME280;42622;49.972;8.452;2023-03-26T00:11:28;100046.00;;;7.05;100.00
56876;BME280;42622;49.972;8.452;2023-03-26T00:13:55;100043.56;;;7.02;100.00
56876;BME280;42622;49.972;8.452;2023-03-26T00:16:25;100050.59;;;7.02;100.00
56876;BME280;42622;49.972;8.452;2023-03-26T00:18:52;100054.44;;;6.96;100.00
56876;BME280;42622;49.972;8.452;2023-03-26T00:21:23;100043.19;;;6.94;100.00
56876;BME280;42622;49.972;8.452;2023-03-26T00:23:56;100044.31;;;6.90;100.00
56876;BME280;42622;49.972;8.452;2023-03-26T00:26:26;100042.88;;;6.84;100.00
56876;BME280;42622;49.972;8.452;2023-03-26T00:28:53;100035.44;;;6.77;100.00
56876;BME280;42622;49.972;8.452;2023-03-26T00:31:19;100040.13;;;6.72;100.00
56876;BME280;42622;49.972;8.452;2023-03-26T00:33:46;100047.06;;;6.73;100.00
56876;BME280;42622;49.972;8.452;2023-03-26T00:36:15;100044.63;;;6.69;100.00
56876;BME280;42622;49.972;8.452;2023-03-26T00:38:43;100034.28;;;6.66;100.00
56876;BME280;42622;49.972;8.452;2023-03-26T00:41:13;100048.34;;;6.65;100.00
56876;BME280;42622;49.972;8.452;2023-03-26T00:44:02;100043.84;;;6.67;100.00
56876;BME280;42622;49.972;8.452;2023-03-26T00:46:30;100040.19;;;6.70;100.00
56876;BME280;42622;49.972;8.452;2023-03-26T00:48:56;100040.88;;;6.74;100.00
56876;BME280;42622;49.972;8.452;2023-03-26T00:51:23;100039.84;;;6.76;100.00
56876;BME280;42622;49.972;8.452;2023-03-26T00:53:49;100043.22;;;6.78;100.00
56876;BME280;42622;49.972;8.452;2023-03-26T00:56:16;100039.69;;;6.79;100.00
56876;BME280;42622;49.972;8.452;2023-03-26T00:58:44;100040.50;;;6.80;100.00
56876;BME280;42622;49.972;8.452;2023-03-26T01:01:23;100040.59;;;6.78;100.00
56876;BME280;42622;49.972;8.452;2023-03-26T01:03:53;100034.66;;;6.75;100.00
56876;BME280;42622;49.972;8.452;2023-03-26T01:06:32;100034.09;;;6.69;100.00
56876;BME280;42622;49.972;8.452;2023-03-26T01:09:15;100026.06;;;6.57;100.00
56876;BME280;42622;49.972;8.452;2023-03-26T01:11:44;100023.91;;;6.49;100.00
56876;BME280;42622;49.972;8.452;2023-03-26T01:14:19;100026.13;;;6.41;100.00
56876;BME280;42622;49.972;8.452;2023-03-26T01:16:58;100020.38;;;6.34;100.00
56876;BME280;42622;49.972;8.452;2023-03-26T01:22:22;100022.44;;;6.29;100.00
56876;BME280;42622;49.972;8.452;2023-03-26T01:24:51;100017.25;;;6.28;100.00
56876;BME280;42622;49.972;8.452;2023-03-26T01:30:46;100006.19;;;6.22;100.00
56876;BME280;42622;49.972;8.452;2023-03-26T01:34:17;99989.94;;;6.16;100.00
56876;BME280;42622;49.972;8.452;2023-03-26T01:37:03;99992.44;;;6.17;100.00
56876;BME280;42622;49.972;8.452;2023-03-26T01:42:35;99989.75;;;6.19;100.00
56876;BME280;42622;49.972;8.452;2023-03-26T01:45:14;99984.41;;;6.20;100.00
56876;BME280;42622;49.972;8.452;2023-03-26T01:47:45;99974.75;;;6.21;100.00
56876;BME280;42622;49.972;8.452;2023-03-26T01:50:13;99979.16;;;6.20;100.00
56876;BME280;42622;49.972;8.452;2023-03-26T01:52:39;99973.75;;;6.23;100.00
56876;BME280;42622;49.972;8.452;2023-03-26T01:55:07;99966.63;;;6.26;100.00
56876;BME280;42622;49.972;8.452;2023-03-26T01:57:59;99968.22;;;6.28;100.00
56876;BME280;42622;49.972;8.452;2023-03-26T02:01:29;99957.53;;;6.31;100.00
56876;BME280;42622;49.972;8.452;2023-03-26T02:07:44;99953.31;;;6.29;100.00
56876;BME280;42622;49.972;8.452;2023-03-26T02:10:25;99952.41;;;6.30;100.00
56876;BME280;42622;49.972;8.452;2023-03-26T02:12:55;99942.72;;;6.30;100.00
56876;BME280;42622;49.972;8.452;2023-03-26T02:15:23;99940.59;;;6.37;100.00
56876;BME280;42622;49.972;8.452;2023-03-26T02:17:49;99942.09;;;6.41;100.00
56876;BME280;42622;49.972;8.452;2023-03-26T02:20:19;99942.66;;;6.46;100.00
56876;BME280;42622;49.972;8.452;2023-03-26T02:22:46;99933.69;;;6.50;100.00
56876;BME280;42622;49.972;8.452;2023-03-26T02:25:17;99929.97;;;6.54;100.00
56876;BME280;42622;49.972;8.452;2023-03-26T02:27:46;99925.38;;;6.58;100.00
56876;BME280;42622;49.972;8.452;2023-03-26T02:30:20;99919.06;;;6.60;100.00
56876;BME280;42622;49.972;8.452;2023-03-26T02:32:51;99911.19;;;6.60;100.00
56876;BME280;42622;49.972;8.452;2023-03-26T02:35:20;99917.38;;;6.59;100.00
56876;BME280;42622;49.972;8.452;2023-03-26T02:37:46;99908.78;;;6.57;100.00
56876;BME280;42622;49.972;8.452;2023-03-26T02:40:17;99906.88;;;6.59;100.00
56876;BME280;42622;49.972;8.452;2023-03-26T02:42:45;99910.44;;;6.58;100.00
56876;BME280;42622;49.972;8.452;2023-03-26T02:45:11;99911.97;;;6.62;100.00
56876;BME280;42622;49.972;8.452;2023-03-26T02:47:37;99905.59;;;6.66;100.00
56876;BME280;42622;49.972;8.452;2023-03-26T02:50:03;99916.66;;;6.72;100.00
56876;BME280;42622;49.972;8.452;2023-03-26T02:52:29;99910.38;;;6.74;100.00
56876;BME280;42622;49.972;8.452;2023-03-26T02:54:56;99899.03;;;6.74;100.00
56876;BME280;42622;49.972;8.452;2023-03-26T02:57:23;99898.47;;;6.83;100.00
56876;BME280;42622;49.972;8.452;2023-03-26T02:59:49;99894.91;;;6.84;100.00
56876;BME280;42622;49.972;8.452;2023-03-26T03:02:17;99900.91;;;6.86;100.00
56876;BME280;42622;49.972;8.452;2023-03-26T03:04:43;99896.59;;;6.85;100.00
56876;BME280;42622;49.972;8.452;2023-03-26T03:07:09;99888.88;;;6.82;100.00
56876;BME280;42622;49.972;8.452;2023-03-26T03:09:39;99885.53;;;6.80;100.00
56876;BME280;42622;49.972;8.452;2023-03-26T03:12:05;99885.53;;;6.80;100.00
56876;BME280;42622;49.972;8.452;2023-03-26T03:14:31;99871.06;;;6.73;100.00
56876;BME280;42622;49.972;8.452;2023-03-26T03:16:57;99875.19;;;6.77;100.00
56876;BME280;42622;49.972;8.452;2023-03-26T03:19:23;99866.47;;;6.76;100.00
56876;BME280;42622;49.972;8.452;2023-03-26T03:21:50;99859.63;;;6.74;100.00
56876;BME280;42622;49.972;8.452;2023-03-26T03:24:15;99857.09;;;6.72;100.00
56876;BME280;42622;49.972;8.452;2023-03-26T03:26:43;99857.16;;;6.70;100.00
56876;BME280;42622;49.972;8.452;2023-03-26T03:29:10;99855.50;;;6.69;100.00
56876;BME280;42622;49.972;8.452;2023-03-26T03:31:37;99854.38;;;6.74;100.00
56876;BME280;42622;49.972;8.452;2023-03-26T03:34:03;99852.56;;;6.74;100.00
56876;BME280;42622;49.972;8.452;2023-03-26T03:36:29;99843.13;;;6.72;100.00
56876;BME280;42622;49.972;8.452;2023-03-26T03:38:57;99842.06;;;6.74;100.00
56876;BME280;42622;49.972;8.452;2023-03-26T03:41:27;99837.66;;;6.75;100.00
56876;BME280;42622;49.972;8.452;2023-03-26T03:43:53;99836.63;;;6.77;100.00
56876;BME280;42622;49.972;8.452;2023-03-26T03:46:19;99831.38;;;6.77;100.00
56876;BME280;42622;49.972;8.452;2023-03-26T03:48:44;99829.69;;;6.76;100.00
56876;BME280;42622;49.972;8.452;2023-03-26T03:51:15;99823.50;;;6.77;100.00
56876;BME280;42622;49.972;8.452;2023-03-26T03:53:42;99839.19;;;6.79;100.00
56876;BME280;42622;49.972;8.452;2023-03-26T03:56:10;99832.97;;;6.80;100.00
56876;BME280;42622;49.972;8.452;2023-03-26T03:58:39;99827.72;;;6.80;100.00
56876;BME280;42622;49.972;8.452;2023-03-26T04:01:05;99819.00;;;6.79;100.00
56876;BME280;42622;49.972;8.452;2023-03-26T04:03:31;99814.59;;;6.80;100.00
56876;BME280;42622;49.972;8.452;2023-03-26T04:06:05;99808.75;;;6.75;100.00
56876;BME280;42622;49.972;8.452;2023-03-26T04:08:32;99802.78;;;6.73;100.00
56876;BME280;42622;49.972;8.452;2023-03-26T04:10:58;99810.66;;;6.73;100.00
56876;BME280;42622;49.972;8.452;2023-03-26T04:13:25;99805.41;;;6.73;100.00
56876;BME280;42622;49.972;8.452;2023-03-26T04:15:51;99804.56;;;6.72;100.00
56876;BME280;42622;49.972;8.452;2023-03-26T04:18:17;99801.84;;;6.74;100.00
56876;BME280;42622;49.972;8.452;2023-03-26T04:20:45;99787.03;;;6.73;100.00
56876;BME280;42622;49.972;8.452;2023-03-26T04:23:16;99776.69;;;6.69;100.00
56876;BME280;42622;49.972;8.452;2023-03-26T04:25:48;99775.22;;;6.65;100.00
56876;BME280;42622;49.972;8.452;2023-03-26T04:28:48;99767.69;;;6.59;100.00
56876;BME280;42622;49.972;8.452;2023-03-26T04:31:22;99760.13;;;6.55;100.00
56876;BME280;42622;49.972;8.452;2023-03-26T04:33:58;99770.88;;;6.50;100.00
56876;BME280;42622;49.972;8.452;2023-03-26T04:36:32;99760.78;;;6.44;100.00
56876;BME280;42622;49.972;8.452;2023-03-26T04:39:02;99758.34;;;6.41;100.00
56876;BME280;42622;49.972;8.452;2023-03-26T04:41:29;99758.53;;;6.38;100.00
56876;BME280;42622;49.972;8.452;2023-03-26T04:43:57;99747.47;;;6.33;100.00
56876;BME280;42622;49.972;8.452;2023-03-26T04:46:26;99730.31;;;6.27;100.00
56876;BME280;42622;49.972;8.452;2023-03-26T04:48:53;99727.88;;;6.24;100.00
56876;BME280;42622;49.972;8.452;2023-03-26T04:51:25;99732.47;;;6.20;100.00
56876;BME280;42622;49.972;8.452;2023-03-26T04:54:00;99729.28;;;6.15;100.00
56876;BME280;42622;49.972;8.452;2023-03-26T04:59:29;99713.25;;;6.06;100.00
56876;BME280;42622;49.972;8.452;2023-03-26T05:02:11;99715.88;;;6.06;100.00
56876;BME280;42622;49.972;8.452;2023-03-26T05:04:38;99702.94;;;6.03;100.00
56876;BME280;42622;49.972;8.452;2023-03-26T05:07:04;99702.28;;;5.99;100.00
56876;BME280;42622;49.972;8.452;2023-03-26T05:09:31;99693.84;;;5.94;100.00
56876;BME280;42622;49.972;8.452;2023-03-26T05:11:57;99681.66;;;5.93;100.00
56876;BME280;42622;49.972;8.452;2023-03-26T05:14:23;99679.09;;;5.91;100.00
56876;BME280;42622;49.972;8.452;2023-03-26T05:16:50;99679.19;;;5.90;100.00
56876;BME280;42622;49.972;8.452;2023-03-26T05:19:17;99668.78;;;5.88;100.00
56876;BME280;42622;49.972;8.452;2023-03-26T05:21:43;99663.53;;;5.88;100.00
56876;BME280;42622;49.972;8.452;2023-03-26T05:24:10;99646.97;;;5.88;100.00
56876;BME280;42622;49.972;8.452;2023-03-26T05:26:36;99656.81;;;5.84;100.00
56876;BME280;42622;49.972;8.452;2023-03-26T05:29:03;99661.22;;;5.84;100.00
56876;BME280;42622;49.972;8.452;2023-03-26T05:31:30;99662.06;;;5.84;100.00
56876;BME280;42622;49.972;8.452;2023-03-26T05:33:57;99652.41;;;5.85;100.00
56876;BME280;42622;49.972;8.452;2023-03-26T05:36:26;99656.63;;;5.87;100.00
56876;BME280;42622;49.972;8.452;2023-03-26T05:38:54;99658.13;;;5.91;100.00
56876;BME280;42622;49.972;8.452;2023-03-26T05:41:19;99651.94;;;5.92;100.00
56876;BME280;42622;49.972;8.452;2023-03-26T05:43:45;99646.63;;;5.94;100.00
56876;BME280;42622;49.972;8.452;2023-03-26T05:46:12;99646.41;;;5.97;100.00
56876;BME280;42622;49.972;8.452;2023-03-26T05:48:38;99640.44;;;5.95;100.00
56876;BME280;42622;49.972;8.452;2023-03-26T05:51:05;99635.00;;;5.98;100.00
56876;BME280;42622;49.972;8.452;2023-03-26T05:53:31;99627.88;;;6.00;100.00
56876;BME280;42622;49.972;8.452;2023-03-26T05:55:56;99617.56;;;5.97;100.00
56876;BME280;42622;49.972;8.452;2023-03-26T05:58:33;99616.34;;;6.03;100.00
56876;BME280;42622;49.972;8.452;2023-03-26T06:01:06;99619.63;;;6.06;100.00
56876;BME280;42622;49.972;8.452;2023-03-26T06:03:38;99609.91;;;6.08;100.00
56876;BME280;42622;49.972;8.452;2023-03-26T06:06:11;99601.91;;;6.10;100.00
56876;BME280;42622;49.972;8.452;2023-03-26T06:08:50;99594.69;;;6.13;100.00
56876;BME280;42622;49.972;8.452;2023-03-26T06:11:18;99587.56;;;6.15;100.00
56876;BME280;42622;49.972;8.452;2023-03-26T06:13:46;99576.97;;;6.17;100.00
56876;BME280;42622;49.972;8.452;2023-03-26T06:16:13;99579.53;;;6.18;100.00
56876;BME280;42622;49.972;8.452;2023-03-26T06:18:39;99576.66;;;6.21;100.00
56876;BME280;42622;49.972;8.452;2023-03-26T06:21:06;99573.13;;;6.22;100.00
56876;BME280;42622;49.972;8.452;2023-03-26T06:23:32;99569.38;;;6.27;100.00
56876;BME280;42622;49.972;8.452;2023-03-26T06:25:58;99560.34;;;6.31;100.00
56876;BME280;42622;49.972;8.452;2023-03-26T06:28:24;99555.75;;;6.34;100.00
56876;BME280;42622;49.972;8.452;2023-03-26T06:30:51;99552.81;;;6.39;100.00
56876;BME280;42622;49.972;8.452;2023-03-26T06:33:17;99553.38;;;6.44;100.00
56876;BME280;42622;49.972;8.452;2023-03-26T06:35:44;99553.81;;;6.51;100.00
56876;BME280;42622;49.972;8.452;2023-03-26T06:38:11;99555.19;;;6.56;100.00
56876;BME280;42622;49.972;8.452;2023-03-26T06:40:38;99560.25;;;6.59;100.00
56876;BME280;42622;49.972;8.452;2023-03-26T06:43:03;99562.56;;;6.64;100.00
56876;BME280;42622;49.972;8.452;2023-03-26T06:45:32;99561.72;;;6.63;100.00
56876;BME280;42622;49.972;8.452;2023-03-26T06:47:57;99562.69;;;6.62;100.00
56876;BME280;42622;49.972;8.452;2023-03-26T06:50:25;99555.84;;;6.60;100.00
56876;BME280;42622;49.972;8.452;2023-03-26T06:52:55;99555.31;;;6.55;100.00
56876;BME280;42622;49.972;8.452;2023-03-26T06:55:21;99560.75;;;6.52;100.00
56876;BME280;42622;49.972;8.452;2023-03-26T06:57:50;99555.81;;;6.47;100.00
56876;BME280;42622;49.972;8.452;2023-03-26T07:00:18;99548.00;;;6.45;100.00
56876;BME280;42622;49.972;8.452;2023-03-26T07:02:46;99556.91;;;6.43;100.00
56876;BME280;42622;49.972;8.452;2023-03-26T07:05:13;99539.59;;;6.40;100.00
56876;BME280;42622;49.972;8.452;2023-03-26T07:07:39;99537.81;;;6.41;100.00
56876;BME280;42622;49.972;8.452;2023-03-26T07:10:06;99526.69;;;6.37;100.00
56876;BME280;42622;49.972;8.452;2023-03-26T07:12:33;99528.47;;;6.37;100.00
56876;BME280;42622;49.972;8.452;2023-03-26T07:15:01;99528.66;;;6.34;100.00
56876;BME280;42622;49.972;8.452;2023-03-26T07:17:28;99528.66;;;6.34;100.00
56876;BME280;42622;49.972;8.452;2023-03-26T07:19:55;99525.91;;;6.35;100.00
56876;BME280;42622;49.972;8.452;2023-03-26T07:22:24;99523.22;;;6.37;100.00
56876;BME280;42622;49.972;8.452;2023-03-26T07:24:50;99517.97;;;6.37;100.00
56876;BME280;42622;49.972;8.452;2023-03-26T07:31:08;99504.53;;;6.41;100.00
56876;BME280;42622;49.972;8.452;2023-03-26T07:40:56;99470.84;;;6.48;100.00
56876;BME280;42622;49.972;8.452;2023-03-26T07:46:14;99466.31;;;6.50;100.00
56876;BME280;42622;49.972;8.452;2023-03-26T07:48:44;99462.97;;;6.48;100.00
56876;BME280;42622;49.972;8.452;2023-03-26T07:51:14;99456.88;;;6.47;100.00
56876;BME280;42622;49.972;8.452;2023-03-26T07:53:42;99451.63;;;6.47;100.00
56876;BME280;42622;49.972;8.452;2023-03-26T07:56:16;99454.97;;;6.50;100.00
56876;BME280;42622;49.972;8.452;2023-03-26T07:58:58;99445.03;;;6.55;100.00
56876;BME280;42622;49.972;8.452;2023-03-26T08:14:23;99448.00;;;6.76;100.00
56876;BME280;42622;49.972;8.452;2023-03-26T08:16:52;99446.19;;;6.76;100.00
56876;BME280;42622;49.972;8.452;2023-03-26T08:20:10;99435.28;;;6.82;100.00
56876;BME280;42622;49.972;8.452;2023-03-26T08:32:30;99449.38;;;6.94;100.00
56876;BME280;42622;49.972;8.452;2023-03-26T08:34:56;99449.44;;;6.92;100.00
56876;BME280;42622;49.972;8.452;2023-03-26T08:37:25;99454.81;;;6.91;100.00
56876;BME280;42622;49.972;8.452;2023-03-26T08:39:52;99446.09;;;6.90;100.00
56876;BME280;42622;49.972;8.452;2023-03-26T08:48:16;99430.66;;;6.86;100.00
56876;BME280;42622;49.972;8.452;2023-03-26T08:55:00;99424.13;;;6.91;100.00
56876;BME280;42622;49.972;8.452;2023-03-26T09:01:10;99394.59;;;6.88;100.00
56876;BME280;42622;49.972;8.452;2023-03-26T09:11:08;99415.31;;;7.05;100.00
56876;BME280;42622;49.972;8.452;2023-03-26T09:14:03;99408.16;;;7.07;100.00
56876;BME280;42622;49.972;8.452;2023-03-26T09:27:29;99372.22;;;7.08;100.00
56876;BME280;42622;49.972;8.452;2023-03-26T09:37:16;99366.28;;;7.17;100.00
56876;BME280;42622;49.972;8.452;2023-03-26T09:43:13;99355.97;;;7.27;100.00
56876;BME280;42622;49.972;8.452;2023-03-26T09:46:24;99366.34;;;7.41;100.00
56876;BME280;42622;49.972;8.452;2023-03-26T09:49:31;99363.16;;;7.49;100.00
56876;BME280;42622;49.972;8.452;2023-03-26T09:59:16;99362.13;;;7.75;100.00
56876;BME280;42622;49.972;8.452;2023-03-26T10:02:34;99361.53;;;8.07;100.00
56876;BME280;42622;49.972;8.452;2023-03-26T10:21:51;99326.75;;;10.56;100.00
56876;BME280;42622;49.972;8.452;2023-03-26T10:34:48;99297.38;;;10.28;100.00
56876;BME280;42622;49.972;8.452;2023-03-26T10:40:58;99293.50;;;9.90;100.00
56876;BME280;42622;49.972;8.452;2023-03-26T10:59:16;99268.97;;;10.20;100.00
56876;BME280;42622;49.972;8.452;2023-03-26T11:04:40;99260.84;;;10.12;100.00
56876;BME280;42622;49.972;8.452;2023-03-26T11:10:55;99281.03;;;9.60;100.00
56876;BME280;42622;49.972;8.452;2023-03-26T11:16:51;99278.59;;;8.81;100.00
56876;BME280;42622;49.972;8.452;2023-03-26T11:19:42;99275.97;;;8.59;100.00
56876;BME280;42622;49.972;8.452;2023-03-26T11:34:17;99256.28;;;10.35;100.00
56876;BME280;42622;49.972;8.452;2023-03-26T11:36:52;99251.69;;;11.08;100.00
56876;BME280;42622;49.972;8.452;2023-03-26T11:39:28;99248.53;;;11.53;100.00
56876;BME280;42622;49.972;8.452;2023-03-26T11:42:14;99232.34;;;11.66;100.00
56876;BME280;42622;49.972;8.452;2023-03-26T11:48:03;99237.25;;;10.72;100.00
56876;BME280;42622;49.972;8.452;2023-03-26T11:50:48;99249.97;;;10.05;100.00
56876;BME280;42622;49.972;8.452;2023-03-26T11:53:27;99259.72;;;9.52;100.00
56876;BME280;42622;49.972;8.452;2023-03-26T11:59:14;99231.69;;;9.07;100.00
56876;BME280;42622;49.972;8.452;2023-03-26T12:01:58;99235.28;;;9.71;100.00
56876;BME280;42622;49.972;8.452;2023-03-26T12:04:37;99229.84;;;10.66;100.00
56876;BME280;42622;49.972;8.452;2023-03-26T12:07:30;99246.47;;;10.87;100.00
56876;BME280;42622;49.972;8.452;2023-03-26T12:10:02;99249.88;;;10.99;100.00
56876;BME280;42622;49.972;8.452;2023-03-26T12:12:41;99238.72;;;10.95;100.00
56876;BME280;42622;49.972;8.452;2023-03-26T12:15:16;99232.38;;;10.67;100.00
56876;BME280;42622;49.972;8.452;2023-03-26T12:17:49;99223.78;;;10.44;100.00
56876;BME280;42622;49.972;8.452;2023-03-26T12:22:51;99222.44;;;10.60;100.00
56876;BME280;42622;49.972;8.452;2023-03-26T12:25:41;99218.84;;;11.11;100.00
56876;BME280;42622;49.972;8.452;2023-03-26T12:31:00;99208.91;;;12.10;100.00
56876;BME280;42622;49.972;8.452;2023-03-26T12:33:34;99211.16;;;12.52;100.00
56876;BME280;42622;49.972;8.452;2023-03-26T12:36:25;99207.19;;;12.28;100.00
56876;BME280;42622;49.972;8.452;2023-03-26T12:38:56;99198.50;;;11.99;100.00
56876;BME280;42622;49.972;8.452;2023-03-26T12:41:34;99197.41;;;11.91;100.00
56876;BME280;42622;49.972;8.452;2023-03-26T12:44:24;99197.63;;;12.08;100.00
56876;BME280;42622;49.972;8.452;2023-03-26T12:47:16;99189.66;;;12.08;100.00
56876;BME280;42622;49.972;8.452;2023-03-26T12:49:47;99190.22;;;12.11;100.00
56876;BME280;42622;49.972;8.452;2023-03-26T12:56:19;99180.47;;;12.95;100.00
56876;BME280;42622;49.972;8.452;2023-03-26T13:08:43;99175.13;;;14.70;100.00
56876;BME280;42622;49.972;8.452;2023-03-26T13:21:57;99188.75;;;14.67;100.00
56876;BME280;42622;49.972;8.452;2023-03-26T13:24:49;99202.16;;;13.53;100.00
56876;BME280;42622;49.972;8.452;2023-03-26T13:36:34;99178.38;;;12.43;100.00
56876;BME280;42622;49.972;8.452;2023-03-26T13:40:35;99186.47;;;12.04;100.00
56876;BME280;42622;49.972;8.452;2023-03-26T13:49:11;99197.84;;;11.38;100.00
56876;BME280;42622;49.972;8.452;2023-03-26T13:51:55;99199.06;;;11.44;100.00
56876;BME280;42622;49.972;8.452;2023-03-26T13:54:37;99192.81;;;11.64;100.00
56876;BME280;42622;49.972;8.452;2023-03-26T13:57:25;99190.19;;;12.21;100.00
56876;BME280;42622;49.972;8.452;2023-03-26T14:00:09;99186.59;;;12.50;100.00
56876;BME280;42622;49.972;8.452;2023-03-26T14:02:56;99183.75;;;13.06;100.00
56876;BME280;42622;49.972;8.452;2023-03-26T14:05:43;99180.78;;;14.07;100.00
56876;BME280;42622;49.972;8.452;2023-03-26T14:10:55;99178.09;;;13.55;100.00
56876;BME280;42622;49.972;8.452;2023-03-26T14:14:01;99174.19;;;13.13;100.00
56876;BME280;42622;49.972;8.452;2023-03-26T14:16:49;99167.28;;;13.03;100.00
56876;BME280;42622;49.972;8.452;2023-03-26T14:35:11;99154.19;;;13.19;100.00
56876;BME280;42622;49.972;8.452;2023-03-26T14:38:01;99159.06;;;13.24;100.00
56876;BME280;42622;49.972;8.452;2023-03-26T14:41:28;99143.88;;;13.16;100.00
56876;BME280;42622;49.972;8.452;2023-03-26T14:47:25;99145.78;;;13.06;100.00
56876;BME280;42622;49.972;8.452;2023-03-26T14:50:28;99158.50;;;12.84;97.89
56876;BME280;42622;49.972;8.452;2023-03-26T14:53:26;99147.31;;;12.63;94.08
56876;BME280;42622;49.972;8.452;2023-03-26T15:19:01;99129.94;;;11.76;97.64
56876;BME280;42622;49.972;8.452;2023-03-26T15:22:51;99124.91;;;11.73;95.92
56876;BME280;42622;49.972;8.452;2023-03-26T15:41:51;99163.25;;;10.72;100.00
56876;BME280;42622;49.972;8.452;2023-03-26T15:44:52;99197.47;;;10.64;100.00
56876;BME280;42622;49.972;8.452;2023-03-26T15:47:55;99252.81;;;10.35;100.00
56876;BME280;42622;49.972;8.452;2023-03-26T15:50:42;99262.81;;;9.25;100.00
56876;BME280;42622;49.972;8.452;2023-03-26T15:57:31;99271.19;;;7.36;100.00
56876;BME280;42622;49.972;8.452;2023-03-26T16:00:37;99266.25;;;7.07;100.00
56876;BME280;42622;49.972;8.452;2023-03-26T16:03:38;99264.72;;;6.92;100.00
56876;BME280;42622;49.972;8.452;2023-03-26T16:18:37;99258.34;;;6.70;100.00
56876;BME280;42622;49.972;8.452;2023-03-26T16:27:02;99263.81;;;6.67;100.00
56876;BME280;42622;49.972;8.452;2023-03-26T16:30:14;99268.03;;;6.70;100.00
56876;BME280;42622;49.972;8.452;2023-03-26T16:33:14;99272.22;;;6.73;100.00
56876;BME280;42622;49.972;8.452;2023-03-26T16:36:10;99260.56;;;6.77;100.00
56876;BME280;42622;49.972;8.452;2023-03-26T16:39:17;99264.94;;;6.89;100.00
56876;BME280;42622;49.972;8.452;2023-03-26T16:41:51;99259.97;;;6.97;100.00
56876;BME280;42622;49.972;8.452;2023-03-26T16:44:43;99261.31;;;7.03;100.00
56876;BME280;42622;49.972;8.452;2023-03-26T16:47:58;99260.88;;;7.09;100.00
56876;BME280;42622;49.972;8.452;2023-03-26T16:54:08;99260.09;;;7.19;100.00
56876;BME280;42622;49.972;8.452;2023-03-26T16:56:51;99256.31;;;7.24;100.00
56876;BME280;42622;49.972;8.452;2023-03-26T17:03:09;99259.66;;;7.26;100.00
56876;BME280;42622;49.972;8.452;2023-03-26T17:06:22;99274.59;;;7.25;100.00
56876;BME280;42622;49.972;8.452;2023-03-26T17:12:50;99267.03;;;7.21;100.00
56876;BME280;42622;49.972;8.452;2023-03-26T17:21:30;99263.47;;;7.22;100.00
56876;BME280;42622;49.972;8.452;2023-03-26T17:33:06;99270.28;;;7.00;100.00
56876;BME280;42622;49.972;8.452;2023-03-26T17:35:46;99268.91;;;6.94;100.00
56876;BME280;42622;49.972;8.452;2023-03-26T17:40:52;99268.28;;;6.91;100.00
56876;BME280;42622;49.972;8.452;2023-03-26T17:43:48;99268.63;;;6.86;100.00
56876;BME280;42622;49.972;8.452;2023-03-26T17:52:00;99279.56;;;6.93;100.00
56876;BME280;42622;49.972;8.452;2023-03-26T17:54:53;99286.25;;;6.97;100.00
56876;BME280;42622;49.972;8.452;2023-03-26T17:57:46;99284.34;;;6.99;100.00
56876;BME280;42622;49.972;8.452;2023-03-26T18:00:20;99279.31;;;6.96;100.00
56876;BME280;42622;49.972;8.452;2023-03-26T18:03:00;99288.88;;;6.97;100.00
56876;BME280;42622;49.972;8.452;2023-03-26T18:05:38;99292.44;;;6.96;100.00
56876;BME280;42622;49.972;8.452;2023-03-26T18:11:29;99296.03;;;6.95;100.00
56876;BME280;42622;49.972;8.452;2023-03-26T18:17:10;99305.81;;;6.93;100.00
56876;BME280;42622;49.972;8.452;2023-03-26T18:20:06;99312.63;;;6.95;100.00
56876;BME280;42622;49.972;8.452;2023-03-26T18:22:44;99311.91;;;6.93;100.00
56876;BME280;42622;49.972;8.452;2023-03-26T18:25:29;99309.38;;;6.92;100.00
56876;BME280;42622;49.972;8.452;2023-03-26T18:28:00;99302.66;;;6.88;100.00
56876;BME280;42622;49.972;8.452;2023-03-26T18:30:29;99322.84;;;6.87;100.00
56876;BME280;42622;49.972;8.452;2023-03-26T18:33:20;99325.81;;;6.83;100.00
56876;BME280;42622;49.972;8.452;2023-03-26T18:35:53;99330.22;;;6.82;100.00
56876;BME280;42622;49.972;8.452;2023-03-26T18:38:24;99320.75;;;6.80;100.00
56876;BME280;42622;49.972;8.452;2023-03-26T18:40:54;99323.72;;;6.75;100.00
56876;BME280;42622;49.972;8.452;2023-03-26T18:43:21;99329.25;;;6.70;100.00
56876;BME280;42622;49.972;8.452;2023-03-26T18:45:51;99334.00;;;6.65;100.00
56876;BME280;42622;49.972;8.452;2023-03-26T18:48:22;99328.97;;;6.62;100.00
56876;BME280;42622;49.972;8.452;2023-03-26T18:51:02;99337.88;;;6.60;100.00
56876;BME280;42622;49.972;8.452;2023-03-26T18:53:36;99338.22;;;6.55;100.00
56876;BME280;42622;49.972;8.452;2023-03-26T18:56:35;99342.84;;;6.52;100.00
56876;BME280;42622;49.972;8.452;2023-03-26T19:01:47;99347.66;;;6.45;100.00
56876;BME280;42622;49.972;8.452;2023-03-26T19:04:16;99341.78;;;6.41;100.00
56876;BME280;42622;49.972;8.452;2023-03-26T19:06:44;99341.91;;;6.40;100.00
56876;BME280;42622;49.972;8.452;2023-03-26T19:09:11;99337.88;;;6.34;100.00
56876;BME280;42622;49.972;8.452;2023-03-26T19:11:40;99351.97;;;6.33;100.00
56876;BME280;42622;49.972;8.452;2023-03-26T19:14:19;99337.38;;;6.29;100.00
56876;BME280;42622;49.972;8.452;2023-03-26T19:17:00;99348.16;;;6.25;100.00
56876;BME280;42622;49.972;8.452;2023-03-26T19:19:35;99344.69;;;6.24;100.00
56876;BME280;42622;49.972;8.452;2023-03-26T19:22:05;99346.59;;;6.22;100.00
56876;BME280;42622;49.972;8.452;2023-03-26T19:24:39;99348.38;;;6.21;100.00
56876;BME280;42622;49.972;8.452;2023-03-26T19:27:06;99343.22;;;6.20;100.00
56876;BME280;42622;49.972;8.452;2023-03-26T19:29:34;99332.94;;;6.17;100.00